sensor_id;sensor_type;location;lat;lon;timestamp;temperature;humidity
13694;DHT22;6919;52.344;14.518;2024-01-10T00:00:43;-9.50;99.90
13694;DHT22;6919;52.344;14.518;2024-01-10T00:03:12;-9.50;99.90
13694;DHT22;6919;52.344;14.518;2024-01-10T00:05:41;-9.50;99.90
13694;DHT22;6919;52.344;14.518;2024-01-10T00:08:09;-9.50;1.00
13694;DHT22;6919;52.344;14.518;2024-01-10T00:10:37;-9.50;99.90
13694;DHT22;6919;52.344;14.518;2024-01-10T00:13:06;-9.50;1.00
13694;DHT22;6919;52.344;14.518;2024-01-10T00:15:34;-9.40;91.40
13694;DHT22;6919;52.344;14.518;2024-01-10T00:18:03;-9.60;1.00
13694;DHT22;6919;52.344;14.518;2024-01-10T00:20:32;-9.60;99.90
13694;DHT22;6919;52.344;14.518;2024-01-10T00:23:00;-9.60;99.90
13694;DHT22;6919;52.344;14.518;2024-01-10T00:25:29;-9.60;99.90
13694;DHT22;6919;52.344;14.518;2024-01-10T00:27:57;-9.60;99.90
13694;DHT22;6919;52.344;14.518;2024-01-10T00:30:26;-9.70;99.90
13694;DHT22;6919;52.344;14.518;2024-01-10T00:32:54;-9.70;99.90
13694;DHT22;6919;52.344;14.518;2024-01-10T00:35:23;-9.60;99.90
13694;DHT22;6919;52.344;14.518;2024-01-10T00:37:52;-9.60;99.90
13694;DHT22;6919;52.344;14.518;2024-01-10T00:40:21;-9.60;1.00
13694;DHT22;6919;52.344;14.518;2024-01-10T00:42:49;-9.50;1.00
13694;DHT22;6919;52.344;14.518;2024-01-10T00:45:17;-9.50;1.00
13694;DHT22;6919;52.344;14.518;2024-01-10T00:47:45;-9.50;1.00
13694;DHT22;6919;52.344;14.518;2024-01-10T00:50:16;-9.50;1.00
13694;DHT22;6919;52.344;14.518;2024-01-10T00:52:45;-9.50;1.00
13694;DHT22;6919;52.344;14.518;2024-01-10T00:55:15;-9.50;99.90
13694;DHT22;6919;52.344;14.518;2024-01-10T00:57:43;-9.50;99.90
13694;DHT22;6919;52.344;14.518;2024-01-10T01:00:12;-9.60;29.50
13694;DHT22;6919;52.344;14.518;2024-01-10T01:02:41;-9.60;1.00
13694;DHT22;6919;52.344;14.518;2024-01-10T01:05:10;-9.60;1.00
13694;DHT22;6919;52.344;14.518;2024-01-10T01:07:38;-9.60;1.00
13694;DHT22;6919;52.344;14.518;2024-01-10T01:10:07;-9.60;1.00
13694;DHT22;6919;52.344;14.518;2024-01-10T01:12:37;-9.60;1.00
13694;DHT22;6919;52.344;14.518;2024-01-10T01:15:07;-9.70;1.00
13694;DHT22;6919;52.344;14.518;2024-01-10T01:17:36;-9.70;1.00
13694;DHT22;6919;52.344;14.518;2024-01-10T01:20:05;-9.80;1.00
13694;DHT22;6919;52.344;14.518;2024-01-10T01:22:34;-9.90;1.00
13694;DHT22;6919;52.344;14.518;2024-01-10T01:25:03;-10.00;99.90
13694;DHT22;6919;52.344;14.518;2024-01-10T01:27:31;-10.10;1.00
13694;DHT22;6919;52.344;14.518;2024-01-10T01:30:01;-10.20;1.00
13694;DHT22;6919;52.344;14.518;2024-01-10T01:32:30;-10.10;1.00
13694;DHT22;6919;52.344;14.518;2024-01-10T01:34:58;-10.00;8.00
13694;DHT22;6919;52.344;14.518;2024-01-10T01:37:27;-10.00;99.90
13694;DHT22;6919;52.344;14.518;2024-01-10T01:39:55;-9.90;99.90
13694;DHT22;6919;52.344;14.518;2024-01-10T01:42:23;-9.90;1.00
13694;DHT22;6919;52.344;14.518;2024-01-10T01:44:52;-9.80;99.90
13694;DHT22;6919;52.344;14.518;2024-01-10T01:47:21;-9.70;99.90
13694;DHT22;6919;52.344;14.518;2024-01-10T01:49:50;-9.60;1.00
13694;DHT22;6919;52.344;14.518;2024-01-10T01:52:18;-9.70;99.90
13694;DHT22;6919;52.344;14.518;2024-01-10T01:54:47;-9.80;99.90
13694;DHT22;6919;52.344;14.518;2024-01-10T01:57:16;-9.90;1.00
13694;DHT22;6919;52.344;14.518;2024-01-10T01:59:44;-9.90;1.00
13694;DHT22;6919;52.344;14.518;2024-01-10T02:02:13;-9.90;1.00
13694;DHT22;6919;52.344;14.518;2024-01-10T02:04:46;-9.90;99.90
13694;DHT22;6919;52.344;14.518;2024-01-10T02:07:15;-9.70;1.00
13694;DHT22;6919;52.344;14.518;2024-01-10T02:09:43;-9.60;1.00
13694;DHT22;6919;52.344;14.518;2024-01-10T02:12:11;-9.50;1.00
13694;DHT22;6919;52.344;14.518;2024-01-10T02:14:40;-9.40;3.30
13694;DHT22;6919;52.344;14.518;2024-01-10T02:17:08;-9.30;99.90
13694;DHT22;6919;52.344;14.518;2024-01-10T02:19:36;-9.30;99.90
13694;DHT22;6919;52.344;14.518;2024-01-10T02:22:06;-9.40;1.00
13694;DHT22;6919;52.344;14.518;2024-01-10T02:24:34;-9.50;1.00
13694;DHT22;6919;52.344;14.518;2024-01-10T02:27:04;-9.50;1.00
13694;DHT22;6919;52.344;14.518;2024-01-10T02:29:34;-9.40;99.90
13694;DHT22;6919;52.344;14.518;2024-01-10T02:32:03;-9.50;99.90
13694;DHT22;6919;52.344;14.518;2024-01-10T02:34:31;-9.50;99.90
13694;DHT22;6919;52.344;14.518;2024-01-10T02:37:00;-9.50;99.90
13694;DHT22;6919;52.344;14.518;2024-01-10T02:39:28;-9.60;91.40
13694;DHT22;6919;52.344;14.518;2024-01-10T02:41:56;-9.60;1.00
13694;DHT22;6919;52.344;14.518;2024-01-10T02:44:26;-9.60;1.00
13694;DHT22;6919;52.344;14.518;2024-01-10T02:46:54;-9.70;99.90
13694;DHT22;6919;52.344;14.518;2024-01-10T02:49:23;-9.80;50.20
13694;DHT22;6919;52.344;14.518;2024-01-10T02:51:51;-9.60;1.00
13694;DHT22;6919;52.344;14.518;2024-01-10T02:54:19;-9.60;99.90
13694;DHT22;6919;52.344;14.518;2024-01-10T02:56:47;-9.60;1.00
13694;DHT22;6919;52.344;14.518;2024-01-10T02:59:16;-9.00;1.00
13694;DHT22;6919;52.344;14.518;2024-01-10T03:01:45;-9.50;38.40
13694;DHT22;6919;52.344;14.518;2024-01-10T03:04:14;-9.60;99.90
13694;DHT22;6919;52.344;14.518;2024-01-10T03:06:42;-9.70;1.00
13694;DHT22;6919;52.344;14.518;2024-01-10T03:09:10;-9.70;1.00
13694;DHT22;6919;52.344;14.518;2024-01-10T03:11:38;-9.80;1.00
13694;DHT22;6919;52.344;14.518;2024-01-10T03:14:08;-9.90;99.90
13694;DHT22;6919;52.344;14.518;2024-01-10T03:16:38;-9.90;99.90
13694;DHT22;6919;52.344;14.518;2024-01-10T03:19:08;-9.90;99.90
13694;DHT22;6919;52.344;14.518;2024-01-10T03:21:36;-9.90;99.90
13694;DHT22;6919;52.344;14.518;2024-01-10T03:24:05;-9.80;1.00
13694;DHT22;6919;52.344;14.518;2024-01-10T03:26:34;-9.90;1.00
13694;DHT22;6919;52.344;14.518;2024-01-10T03:29:03;-9.90;1.00
13694;DHT22;6919;52.344;14.518;2024-01-10T03:31:31;-9.90;1.00
13694;DHT22;6919;52.344;14.518;2024-01-10T03:34:00;-9.90;1.00
13694;DHT22;6919;52.344;14.518;2024-01-10T03:36:30;-9.90;1.00
13694;DHT22;6919;52.344;14.518;2024-01-10T03:38:58;-9.90;1.00
13694;DHT22;6919;52.344;14.518;2024-01-10T03:41:26;-9.90;1.00
13694;DHT22;6919;52.344;14.518;2024-01-10T03:43:55;-9.90;1.00
13694;DHT22;6919;52.344;14.518;2024-01-10T03:46:23;-9.80;1.00
13694;DHT22;6919;52.344;14.518;2024-01-10T03:48:52;-9.90;1.00
13694;DHT22;6919;52.344;14.518;2024-01-10T03:51:20;-9.90;99.90
13694;DHT22;6919;52.344;14.518;2024-01-10T03:53:51;-10.00;99.90
13694;DHT22;6919;52.344;14.518;2024-01-10T03:56:21;-10.00;99.90
13694;DHT22;6919;52.344;14.518;2024-01-10T03:58:50;-10.00;99.90
13694;DHT22;6919;52.344;14.518;2024-01-10T04:01:22;-10.00;99.90
13694;DHT22;6919;52.344;14.518;2024-01-10T04:03:51;-9.50;99.90
13694;DHT22;6919;52.344;14.518;2024-01-10T04:06:19;-10.00;99.90
13694;DHT22;6919;52.344;14.518;2024-01-10T04:08:47;-10.00;1.00
13694;DHT22;6919;52.344;14.518;2024-01-10T04:11:17;-10.00;1.00
13694;DHT22;6919;52.344;14.518;2024-01-10T04:13:45;-10.10;1.00
13694;DHT22;6919;52.344;14.518;2024-01-10T04:16:14;-10.00;37.30
13694;DHT22;6919;52.344;14.518;2024-01-10T04:18:42;-10.00;99.90
13694;DHT22;6919;52.344;14.518;2024-01-10T04:21:10;-10.00;99.90
13694;DHT22;6919;52.344;14.518;2024-01-10T04:23:39;-10.00;99.90
13694;DHT22;6919;52.344;14.518;2024-01-10T04:26:07;-9.90;99.90
13694;DHT22;6919;52.344;14.518;2024-01-10T04:28:37;-9.80;1.00
13694;DHT22;6919;52.344;14.518;2024-01-10T04:31:07;-9.80;84.60
13694;DHT22;6919;52.344;14.518;2024-01-10T04:33:35;-9.80;90.30
13694;DHT22;6919;52.344;14.518;2024-01-10T04:36:04;-9.80;1.00
13694;DHT22;6919;52.344;14.518;2024-01-10T04:38:34;-9.80;1.00
13694;DHT22;6919;52.344;14.518;2024-01-10T04:41:03;-9.90;1.00
13694;DHT22;6919;52.344;14.518;2024-01-10T04:43:32;-10.00;1.00
13694;DHT22;6919;52.344;14.518;2024-01-10T04:46:01;-10.00;99.90
13694;DHT22;6919;52.344;14.518;2024-01-10T04:48:30;-10.00;99.90
13694;DHT22;6919;52.344;14.518;2024-01-10T04:50:58;-10.00;99.90
13694;DHT22;6919;52.344;14.518;2024-01-10T04:53:26;-10.00;99.90
13694;DHT22;6919;52.344;14.518;2024-01-10T04:55:55;-9.90;1.00
13694;DHT22;6919;52.344;14.518;2024-01-10T04:58:24;-9.80;1.00
13694;DHT22;6919;52.344;14.518;2024-01-10T05:00:52;-9.90;1.00
13694;DHT22;6919;52.344;14.518;2024-01-10T05:03:22;-9.90;1.00
13694;DHT22;6919;52.344;14.518;2024-01-10T05:05:50;-9.90;1.00
13694;DHT22;6919;52.344;14.518;2024-01-10T05:08:18;-9.90;1.00
13694;DHT22;6919;52.344;14.518;2024-01-10T05:10:48;-9.90;1.00
13694;DHT22;6919;52.344;14.518;2024-01-10T05:13:17;-9.80;1.00
13694;DHT22;6919;52.344;14.518;2024-01-10T05:15:45;-9.70;1.00
13694;DHT22;6919;52.344;14.518;2024-01-10T05:18:14;-9.50;99.90
13694;DHT22;6919;52.344;14.518;2024-01-10T05:20:44;-9.70;99.90
13694;DHT22;6919;52.344;14.518;2024-01-10T05:23:12;-9.90;1.00
13694;DHT22;6919;52.344;14.518;2024-01-10T05:25:41;-10.10;1.00
13694;DHT22;6919;52.344;14.518;2024-01-10T05:28:09;-10.10;17.00
13694;DHT22;6919;52.344;14.518;2024-01-10T05:30:37;-10.20;99.90
13694;DHT22;6919;52.344;14.518;2024-01-10T05:33:06;-10.20;1.00
13694;DHT22;6919;52.344;14.518;2024-01-10T05:35:34;-10.20;33.40
13694;DHT22;6919;52.344;14.518;2024-01-10T05:38:04;-10.20;99.90
13694;DHT22;6919;52.344;14.518;2024-01-10T05:40:32;-10.20;99.90
13694;DHT22;6919;52.344;14.518;2024-01-10T05:43:01;-10.10;99.90
13694;DHT22;6919;52.344;14.518;2024-01-10T05:45:29;-10.00;1.00
13694;DHT22;6919;52.344;14.518;2024-01-10T05:47:58;-10.00;1.00
13694;DHT22;6919;52.344;14.518;2024-01-10T05:50:29;-9.90;1.00
13694;DHT22;6919;52.344;14.518;2024-01-10T05:52:58;-10.00;99.90
13694;DHT22;6919;52.344;14.518;2024-01-10T05:55:28;-9.90;1.00
13694;DHT22;6919;52.344;14.518;2024-01-10T05:57:56;-9.90;1.00
13694;DHT22;6919;52.344;14.518;2024-01-10T06:00:25;-9.90;1.00
13694;DHT22;6919;52.344;14.518;2024-01-10T06:02:55;-9.90;1.00
13694;DHT22;6919;52.344;14.518;2024-01-10T06:05:23;-10.10;99.90
13694;DHT22;6919;52.344;14.518;2024-01-10T06:07:53;-10.10;99.90
13694;DHT22;6919;52.344;14.518;2024-01-10T06:10:22;-10.10;99.90
13694;DHT22;6919;52.344;14.518;2024-01-10T06:12:51;-10.10;1.00
13694;DHT22;6919;52.344;14.518;2024-01-10T06:15:20;-10.00;99.90
13694;DHT22;6919;52.344;14.518;2024-01-10T06:17:48;-9.90;1.00
13694;DHT22;6919;52.344;14.518;2024-01-10T06:20:18;-9.90;1.00
13694;DHT22;6919;52.344;14.518;2024-01-10T06:22:47;-10.00;1.00
13694;DHT22;6919;52.344;14.518;2024-01-10T06:25:15;-9.90;1.00
13694;DHT22;6919;52.344;14.518;2024-01-10T06:27:44;-9.90;1.00
13694;DHT22;6919;52.344;14.518;2024-01-10T06:30:14;-9.90;99.90
13694;DHT22;6919;52.344;14.518;2024-01-10T06:32:42;-9.90;99.90
13694;DHT22;6919;52.344;14.518;2024-01-10T06:35:12;-9.80;95.40
13694;DHT22;6919;52.344;14.518;2024-01-10T06:37:40;-9.80;99.90
13694;DHT22;6919;52.344;14.518;2024-01-10T06:40:11;-9.70;99.90
13694;DHT22;6919;52.344;14.518;2024-01-10T06:42:40;-9.70;99.90
13694;DHT22;6919;52.344;14.518;2024-01-10T06:45:09;-9.60;99.90
13694;DHT22;6919;52.344;14.518;2024-01-10T06:47:40;-9.60;99.90
13694;DHT22;6919;52.344;14.518;2024-01-10T06:50:09;-9.70;99.90
13694;DHT22;6919;52.344;14.518;2024-01-10T06:52:38;-9.80;1.00
13694;DHT22;6919;52.344;14.518;2024-01-10T06:55:07;-9.80;1.00
13694;DHT22;6919;52.344;14.518;2024-01-10T06:57:36;-9.80;1.00
13694;DHT22;6919;52.344;14.518;2024-01-10T07:00:06;-9.90;1.00
13694;DHT22;6919;52.344;14.518;2024-01-10T07:02:39;-9.90;99.90
13694;DHT22;6919;52.344;14.518;2024-01-10T07:05:09;-10.00;6.10
13694;DHT22;6919;52.344;14.518;2024-01-10T07:07:37;-10.00;90.40
13694;DHT22;6919;52.344;14.518;2024-01-10T07:10:06;-10.00;1.00
13694;DHT22;6919;52.344;14.518;2024-01-10T07:12:35;-9.90;99.90
13694;DHT22;6919;52.344;14.518;2024-01-10T07:15:05;-9.80;1.00
13694;DHT22;6919;52.344;14.518;2024-01-10T07:17:34;-9.70;1.00
13694;DHT22;6919;52.344;14.518;2024-01-10T07:20:04;-9.60;1.00
13694;DHT22;6919;52.344;14.518;2024-01-10T07:22:35;-9.50;1.00
13694;DHT22;6919;52.344;14.518;2024-01-10T07:25:07;-9.50;1.00
13694;DHT22;6919;52.344;14.518;2024-01-10T07:27:36;-9.50;99.90
13694;DHT22;6919;52.344;14.518;2024-01-10T07:30:06;-9.30;99.90
13694;DHT22;6919;52.344;14.518;2024-01-10T07:32:40;-9.20;71.70
13694;DHT22;6919;52.344;14.518;2024-01-10T07:35:11;-9.20;1.00
13694;DHT22;6919;52.344;14.518;2024-01-10T07:37:41;-9.10;1.00
13694;DHT22;6919;52.344;14.518;2024-01-10T07:40:10;-9.10;99.90
13694;DHT22;6919;52.344;14.518;2024-01-10T07:42:40;-9.00;99.90
13694;DHT22;6919;52.344;14.518;2024-01-10T07:45:10;-8.80;99.90
13694;DHT22;6919;52.344;14.518;2024-01-10T07:47:38;-8.80;99.90
13694;DHT22;6919;52.344;14.518;2024-01-10T07:50:08;-8.70;99.90
13694;DHT22;6919;52.344;14.518;2024-01-10T07:52:41;-8.60;99.90
13694;DHT22;6919;52.344;14.518;2024-01-10T07:55:10;-8.50;53.40
13694;DHT22;6919;52.344;14.518;2024-01-10T07:57:41;-8.50;1.00
13694;DHT22;6919;52.344;14.518;2024-01-10T08:00:10;-8.40;1.00
13694;DHT22;6919;52.344;14.518;2024-01-10T08:02:40;-8.30;1.00
13694;DHT22;6919;52.344;14.518;2024-01-10T08:05:08;-8.20;1.00
13694;DHT22;6919;52.344;14.518;2024-01-10T08:07:37;-8.20;1.00
13694;DHT22;6919;52.344;14.518;2024-01-10T08:10:09;-8.20;1.00
13694;DHT22;6919;52.344;14.518;2024-01-10T08:12:38;-8.00;1.00
13694;DHT22;6919;52.344;14.518;2024-01-10T08:15:08;-7.80;1.00
13694;DHT22;6919;52.344;14.518;2024-01-10T08:17:37;-7.70;99.90
13694;DHT22;6919;52.344;14.518;2024-01-10T08:20:07;-7.50;99.90
13694;DHT22;6919;52.344;14.518;2024-01-10T08:22:37;-7.40;1.00
13694;DHT22;6919;52.344;14.518;2024-01-10T08:25:08;-7.40;1.00
13694;DHT22;6919;52.344;14.518;2024-01-10T08:27:37;-7.40;1.00
13694;DHT22;6919;52.344;14.518;2024-01-10T08:30:07;-7.10;1.00
13694;DHT22;6919;52.344;14.518;2024-01-10T08:32:36;-7.10;1.00
13694;DHT22;6919;52.344;14.518;2024-01-10T08:35:05;-7.00;99.90
13694;DHT22;6919;52.344;14.518;2024-01-10T08:37:36;-7.00;99.90
13694;DHT22;6919;52.344;14.518;2024-01-10T08:40:10;-7.00;99.90
13694;DHT22;6919;52.344;14.518;2024-01-10T08:42:42;-6.90;1.00
13694;DHT22;6919;52.344;14.518;2024-01-10T08:45:10;-6.80;1.00
13694;DHT22;6919;52.344;14.518;2024-01-10T08:47:38;-6.90;1.00
13694;DHT22;6919;52.344;14.518;2024-01-10T08:50:07;-7.00;1.00
13694;DHT22;6919;52.344;14.518;2024-01-10T08:52:37;-7.10;1.00
13694;DHT22;6919;52.344;14.518;2024-01-10T08:55:06;-7.10;99.90
13694;DHT22;6919;52.344;14.518;2024-01-10T08:57:41;-6.90;99.90
13694;DHT22;6919;52.344;14.518;2024-01-10T09:00:10;-6.90;99.90
13694;DHT22;6919;52.344;14.518;2024-01-10T09:02:42;-6.80;99.90
13694;DHT22;6919;52.344;14.518;2024-01-10T09:05:10;-6.80;1.00
13694;DHT22;6919;52.344;14.518;2024-01-10T09:07:39;-6.80;1.00
13694;DHT22;6919;52.344;14.518;2024-01-10T09:10:09;-6.80;1.00
13694;DHT22;6919;52.344;14.518;2024-01-10T09:12:37;-6.80;1.00
13694;DHT22;6919;52.344;14.518;2024-01-10T09:15:08;-6.70;79.70
13694;DHT22;6919;52.344;14.518;2024-01-10T09:17:40;-6.70;15.30
13694;DHT22;6919;52.344;14.518;2024-01-10T09:20:09;-6.50;1.00
13694;DHT22;6919;52.344;14.518;2024-01-10T09:22:39;-6.50;1.00
13694;DHT22;6919;52.344;14.518;2024-01-10T09:25:07;-6.50;99.90
13694;DHT22;6919;52.344;14.518;2024-01-10T09:27:36;-6.40;1.00
13694;DHT22;6919;52.344;14.518;2024-01-10T09:30:07;-6.40;99.90
13694;DHT22;6919;52.344;14.518;2024-01-10T09:32:36;-6.20;99.90
13694;DHT22;6919;52.344;14.518;2024-01-10T09:35:06;-6.00;99.90
13694;DHT22;6919;52.344;14.518;2024-01-10T09:37:35;-6.00;1.00
13694;DHT22;6919;52.344;14.518;2024-01-10T09:40:04;-6.10;1.00
13694;DHT22;6919;52.344;14.518;2024-01-10T09:42:34;-5.90;1.00
13694;DHT22;6919;52.344;14.518;2024-01-10T09:45:07;-5.90;1.00
13694;DHT22;6919;52.344;14.518;2024-01-10T09:47:39;-5.80;1.00
13694;DHT22;6919;52.344;14.518;2024-01-10T09:50:10;-5.60;1.00
13694;DHT22;6919;52.344;14.518;2024-01-10T09:52:45;-5.60;1.00
13694;DHT22;6919;52.344;14.518;2024-01-10T09:55:21;-5.50;1.00
13694;DHT22;6919;52.344;14.518;2024-01-10T09:57:51;-5.60;1.00
13694;DHT22;6919;52.344;14.518;2024-01-10T10:00:22;-5.70;1.00
13694;DHT22;6919;52.344;14.518;2024-01-10T10:02:54;-5.70;1.00
13694;DHT22;6919;52.344;14.518;2024-01-10T10:05:25;-5.60;1.00
13694;DHT22;6919;52.344;14.518;2024-01-10T10:07:57;-5.70;1.00
13694;DHT22;6919;52.344;14.518;2024-01-10T10:10:26;-5.50;1.00
13694;DHT22;6919;52.344;14.518;2024-01-10T10:12:54;-5.50;1.00
13694;DHT22;6919;52.344;14.518;2024-01-10T10:15:25;-5.60;1.00
13694;DHT22;6919;52.344;14.518;2024-01-10T10:17:54;-5.60;1.00
13694;DHT22;6919;52.344;14.518;2024-01-10T10:20:24;-5.40;1.00
13694;DHT22;6919;52.344;14.518;2024-01-10T10:22:58;-5.30;1.00
13694;DHT22;6919;52.344;14.518;2024-01-10T10:25:31;-5.30;1.00
13694;DHT22;6919;52.344;14.518;2024-01-10T10:28:03;-5.00;1.00
13694;DHT22;6919;52.344;14.518;2024-01-10T10:30:35;-5.20;1.00
13694;DHT22;6919;52.344;14.518;2024-01-10T10:33:04;-5.10;1.00
13694;DHT22;6919;52.344;14.518;2024-01-10T10:35:34;-5.00;1.00
13694;DHT22;6919;52.344;14.518;2024-01-10T10:38:08;-4.90;1.00
13694;DHT22;6919;52.344;14.518;2024-01-10T10:40:37;-4.80;1.00
13694;DHT22;6919;52.344;14.518;2024-01-10T10:43:12;-4.80;1.00
13694;DHT22;6919;52.344;14.518;2024-01-10T10:45:47;-4.90;1.00
13694;DHT22;6919;52.344;14.518;2024-01-10T10:48:18;-4.90;1.00
13694;DHT22;6919;52.344;14.518;2024-01-10T10:50:54;-5.00;1.00
13694;DHT22;6919;52.344;14.518;2024-01-10T10:53:34;-4.90;1.00
13694;DHT22;6919;52.344;14.518;2024-01-10T10:56:04;-4.80;1.00
13694;DHT22;6919;52.344;14.518;2024-01-10T10:58:36;-4.60;1.00
13694;DHT22;6919;52.344;14.518;2024-01-10T11:01:10;-4.60;1.00
13694;DHT22;6919;52.344;14.518;2024-01-10T11:03:40;-4.60;1.00
13694;DHT22;6919;52.344;14.518;2024-01-10T11:06:11;-4.30;1.00
13694;DHT22;6919;52.344;14.518;2024-01-10T11:08:44;-4.30;1.00
13694;DHT22;6919;52.344;14.518;2024-01-10T11:11:30;-4.30;1.00
13694;DHT22;6919;52.344;14.518;2024-01-10T11:14:21;-4.30;1.00
13694;DHT22;6919;52.344;14.518;2024-01-10T11:17:20;-4.10;99.90
13694;DHT22;6919;52.344;14.518;2024-01-10T11:20:14;-4.30;99.90
13694;DHT22;6919;52.344;14.518;2024-01-10T11:23:06;-4.20;99.90
13694;DHT22;6919;52.344;14.518;2024-01-10T11:25:48;-4.10;99.90
13694;DHT22;6919;52.344;14.518;2024-01-10T11:28:17;-4.00;99.90
13694;DHT22;6919;52.344;14.518;2024-01-10T11:30:50;-4.00;1.00
13694;DHT22;6919;52.344;14.518;2024-01-10T11:33:22;-4.10;99.90
13694;DHT22;6919;52.344;14.518;2024-01-10T11:36:23;-4.10;99.90
13694;DHT22;6919;52.344;14.518;2024-01-10T11:38:59;-4.10;99.90
13694;DHT22;6919;52.344;14.518;2024-01-10T11:41:31;-4.00;99.90
13694;DHT22;6919;52.344;14.518;2024-01-10T11:44:27;-3.90;99.90
13694;DHT22;6919;52.344;14.518;2024-01-10T11:46:58;-3.90;99.90
13694;DHT22;6919;52.344;14.518;2024-01-10T11:49:29;-3.80;1.00
13694;DHT22;6919;52.344;14.518;2024-01-10T11:51:58;-3.80;99.90
13694;DHT22;6919;52.344;14.518;2024-01-10T11:54:41;-3.70;99.90
13694;DHT22;6919;52.344;14.518;2024-01-10T11:57:12;-3.60;99.90
13694;DHT22;6919;52.344;14.518;2024-01-10T11:59:43;-3.60;99.90
13694;DHT22;6919;52.344;14.518;2024-01-10T12:02:14;-3.60;99.90
13694;DHT22;6919;52.344;14.518;2024-01-10T12:04:44;-3.70;99.90
13694;DHT22;6919;52.344;14.518;2024-01-10T12:07:16;-3.60;99.90
13694;DHT22;6919;52.344;14.518;2024-01-10T12:09:48;-3.50;99.90
13694;DHT22;6919;52.344;14.518;2024-01-10T12:12:16;-3.50;99.90
13694;DHT22;6919;52.344;14.518;2024-01-10T12:14:45;-3.50;99.90
13694;DHT22;6919;52.344;14.518;2024-01-10T12:17:14;-3.30;99.90
13694;DHT22;6919;52.344;14.518;2024-01-10T12:19:44;-3.30;99.90
13694;DHT22;6919;52.344;14.518;2024-01-10T12:22:16;-3.30;99.90
13694;DHT22;6919;52.344;14.518;2024-01-10T12:24:48;-3.30;99.90
13694;DHT22;6919;52.344;14.518;2024-01-10T12:27:18;-3.20;99.90
13694;DHT22;6919;52.344;14.518;2024-01-10T12:29:49;-3.20;99.90
13694;DHT22;6919;52.344;14.518;2024-01-10T12:32:20;-3.00;99.90
13694;DHT22;6919;52.344;14.518;2024-01-10T12:34:59;-3.00;99.90
13694;DHT22;6919;52.344;14.518;2024-01-10T12:37:28;-2.80;99.90
13694;DHT22;6919;52.344;14.518;2024-01-10T12:39:57;-2.70;99.90
13694;DHT22;6919;52.344;14.518;2024-01-10T12:42:25;-2.80;99.90
13694;DHT22;6919;52.344;14.518;2024-01-10T12:44:54;-2.80;99.90
13694;DHT22;6919;52.344;14.518;2024-01-10T12:47:24;-2.70;99.90
13694;DHT22;6919;52.344;14.518;2024-01-10T12:49:53;-2.60;99.90
13694;DHT22;6919;52.344;14.518;2024-01-10T12:52:23;-2.60;99.90
13694;DHT22;6919;52.344;14.518;2024-01-10T12:54:52;-2.60;99.90
13694;DHT22;6919;52.344;14.518;2024-01-10T12:57:21;-2.60;99.90
13694;DHT22;6919;52.344;14.518;2024-01-10T12:59:50;-2.50;99.90
13694;DHT22;6919;52.344;14.518;2024-01-10T13:02:19;-2.50;99.90
13694;DHT22;6919;52.344;14.518;2024-01-10T13:04:47;-2.50;99.90
13694;DHT22;6919;52.344;14.518;2024-01-10T13:07:16;-2.40;99.90
13694;DHT22;6919;52.344;14.518;2024-01-10T13:09:46;-2.50;99.90
13694;DHT22;6919;52.344;14.518;2024-01-10T13:12:14;-2.40;99.90
13694;DHT22;6919;52.344;14.518;2024-01-10T13:14:43;-2.40;99.90
13694;DHT22;6919;52.344;14.518;2024-01-10T13:17:11;-2.40;99.90
13694;DHT22;6919;52.344;14.518;2024-01-10T13:19:39;-2.40;99.90
13694;DHT22;6919;52.344;14.518;2024-01-10T13:22:07;-2.40;99.90
13694;DHT22;6919;52.344;14.518;2024-01-10T13:24:36;-2.40;99.90
13694;DHT22;6919;52.344;14.518;2024-01-10T13:27:06;-2.50;99.90
13694;DHT22;6919;52.344;14.518;2024-01-10T13:29:36;-2.60;99.90
13694;DHT22;6919;52.344;14.518;2024-01-10T13:32:05;-2.60;99.90
13694;DHT22;6919;52.344;14.518;2024-01-10T13:34:35;-2.70;99.90
13694;DHT22;6919;52.344;14.518;2024-01-10T13:37:03;-2.70;1.00
13694;DHT22;6919;52.344;14.518;2024-01-10T13:39:32;-2.70;1.00
13694;DHT22;6919;52.344;14.518;2024-01-10T13:42:01;-2.70;1.00
13694;DHT22;6919;52.344;14.518;2024-01-10T13:44:30;-2.70;1.00
13694;DHT22;6919;52.344;14.518;2024-01-10T13:46:59;-2.70;99.90
13694;DHT22;6919;52.344;14.518;2024-01-10T13:49:28;-2.70;99.90
13694;DHT22;6919;52.344;14.518;2024-01-10T13:51:57;-2.70;99.90
13694;DHT22;6919;52.344;14.518;2024-01-10T13:54:25;-2.60;99.90
13694;DHT22;6919;52.344;14.518;2024-01-10T13:56:53;-2.50;1.00
13694;DHT22;6919;52.344;14.518;2024-01-10T13:59:22;-2.50;99.90
13694;DHT22;6919;52.344;14.518;2024-01-10T14:01:52;-2.40;99.90
13694;DHT22;6919;52.344;14.518;2024-01-10T14:04:20;-2.40;99.90
13694;DHT22;6919;52.344;14.518;2024-01-10T14:06:49;-2.30;99.90
13694;DHT22;6919;52.344;14.518;2024-01-10T14:09:17;-2.20;99.90
13694;DHT22;6919;52.344;14.518;2024-01-10T14:11:46;-2.20;99.90
13694;DHT22;6919;52.344;14.518;2024-01-10T14:14:15;-2.20;99.90
13694;DHT22;6919;52.344;14.518;2024-01-10T14:16:46;-2.00;99.90
13694;DHT22;6919;52.344;14.518;2024-01-10T14:19:16;-1.80;99.90
13694;DHT22;6919;52.344;14.518;2024-01-10T14:21:44;-1.70;99.90
13694;DHT22;6919;52.344;14.518;2024-01-10T14:24:13;-1.50;99.90
13694;DHT22;6919;52.344;14.518;2024-01-10T14:26:41;-1.30;99.90
13694;DHT22;6919;52.344;14.518;2024-01-10T14:29:10;-1.30;99.90
13694;DHT22;6919;52.344;14.518;2024-01-10T14:31:38;-1.40;99.90
13694;DHT22;6919;52.344;14.518;2024-01-10T14:34:29;-1.60;99.90
13694;DHT22;6919;52.344;14.518;2024-01-10T14:36:57;-1.80;99.90
13694;DHT22;6919;52.344;14.518;2024-01-10T14:39:26;-1.90;99.90
13694;DHT22;6919;52.344;14.518;2024-01-10T14:41:54;-2.00;99.90
13694;DHT22;6919;52.344;14.518;2024-01-10T14:44:22;-2.20;99.90
13694;DHT22;6919;52.344;14.518;2024-01-10T14:46:51;-2.30;99.90
13694;DHT22;6919;52.344;14.518;2024-01-10T14:49:33;-2.40;99.90
13694;DHT22;6919;52.344;14.518;2024-01-10T14:52:02;-2.40;99.90
13694;DHT22;6919;52.344;14.518;2024-01-10T14:54:31;-2.70;99.90
13694;DHT22;6919;52.344;14.518;2024-01-10T14:56:59;-2.60;99.90
13694;DHT22;6919;52.344;14.518;2024-01-10T14:59:27;-2.70;99.90
13694;DHT22;6919;52.344;14.518;2024-01-10T15:02:10;-2.80;1.00
13694;DHT22;6919;52.344;14.518;2024-01-10T15:04:40;-3.00;1.00
13694;DHT22;6919;52.344;14.518;2024-01-10T15:07:08;-3.00;1.00
13694;DHT22;6919;52.344;14.518;2024-01-10T15:09:37;-3.10;1.00
13694;DHT22;6919;52.344;14.518;2024-01-10T15:12:06;-3.20;1.00
13694;DHT22;6919;52.344;14.518;2024-01-10T15:14:36;-3.30;1.00
13694;DHT22;6919;52.344;14.518;2024-01-10T15:17:07;-3.30;1.00
13694;DHT22;6919;52.344;14.518;2024-01-10T15:19:39;-3.30;1.00
13694;DHT22;6919;52.344;14.518;2024-01-10T15:22:08;-3.40;1.00
13694;DHT22;6919;52.344;14.518;2024-01-10T15:24:36;-3.50;1.00
13694;DHT22;6919;52.344;14.518;2024-01-10T15:27:05;-3.50;1.00
13694;DHT22;6919;52.344;14.518;2024-01-10T15:29:37;-3.60;1.00
13694;DHT22;6919;52.344;14.518;2024-01-10T15:32:07;-3.70;1.00
13694;DHT22;6919;52.344;14.518;2024-01-10T15:34:35;-3.70;1.00
13694;DHT22;6919;52.344;14.518;2024-01-10T15:37:06;-3.70;1.00
13694;DHT22;6919;52.344;14.518;2024-01-10T15:39:35;-3.80;1.00
13694;DHT22;6919;52.344;14.518;2024-01-10T15:42:05;-3.80;1.00
13694;DHT22;6919;52.344;14.518;2024-01-10T15:44:34;-3.80;1.00
13694;DHT22;6919;52.344;14.518;2024-01-10T15:47:06;-3.90;1.00
13694;DHT22;6919;52.344;14.518;2024-01-10T15:49:35;-3.90;1.00
13694;DHT22;6919;52.344;14.518;2024-01-10T15:52:03;-4.00;1.00
13694;DHT22;6919;52.344;14.518;2024-01-10T15:54:34;-4.00;1.00